Time;durP1;ratioP1;P1;durP2;ratioP2;P2;SDS_P1;SDS_P2;PMS_P1;PMS_P2;Temp;Humidity;BMP_temperature;BMP_pressure;BME280_temperature;BME280_humidity;BME280_pressure;Samples;Min_cycle;Max_cycle;Signal;HPM_P1;HPM_P2
2021/07/03 00:01:58;;;;;;;10.30;9.38;;;19.60;74.20;;;;;;5001399;28;20201;-90
2021/07/03 00:04:25;;;;;;;9.98;9.18;;;19.70;74.10;;;;;;4984532;28;20198;-88
2021/07/03 00:06:51;;;;;;;9.90;8.70;;;19.60;74.10;;;;;;5002200;28;20182;-89
2021/07/03 00:09:16;;;;;;;10.63;9.50;;;19.70;73.60;;;;;;5012406;28;20213;-87
2021/07/03 00:11:43;;;;;;;9.85;9.05;;;19.60;73.60;;;;;;5021693;28;20212;-89
2021/07/03 00:14:09;;;;;;;9.55;8.85;;;19.60;73.80;;;;;;5021829;28;20190;-88
2021/07/03 00:16:35;;;;;;;10.05;9.25;;;19.40;74.30;;;;;;5022565;28;20189;-89
2021/07/03 00:19:01;;;;;;;10.35;9.45;;;19.30;75.20;;;;;;5004456;28;20209;-89
2021/07/03 00:21:27;;;;;;;9.40;8.60;;;19.40;75.20;;;;;;5004963;28;20201;-90
2021/07/03 00:23:53;;;;;;;9.48;8.57;;;19.40;75.00;;;;;;5021952;28;20204;-89
2021/07/03 00:26:19;;;;;;;10.35;9.52;;;19.40;74.70;;;;;;5022724;28;20186;-89
2021/07/03 00:28:44;;;;;;;9.57;8.68;;;19.40;74.10;;;;;;5022271;28;20221;-90
2021/07/03 00:31:10;;;;;;;9.32;8.43;;;19.40;74.10;;;;;;5021198;28;20192;-90
2021/07/03 00:33:36;;;;;;;10.60;9.75;;;19.40;73.90;;;;;;5022071;28;20182;-89
2021/07/03 00:36:01;;;;;;;10.32;9.35;;;19.30;74.00;;;;;;5022586;28;20181;-90
2021/07/03 00:38:27;;;;;;;9.60;8.90;;;19.30;74.50;;;;;;5020944;28;20195;-89
2021/07/03 00:40:53;;;;;;;10.95;10.05;;;19.30;74.40;;;;;;5022194;28;20204;-89
2021/07/03 00:43:18;;;;;;;12.18;11.15;;;19.30;74.50;;;;;;5004088;28;20205;-88
2021/07/03 00:45:44;;;;;;;11.13;10.23;;;19.30;74.70;;;;;;5022398;28;20947;-89
2021/07/03 00:48:10;;;;;;;10.48;9.65;;;19.10;74.80;;;;;;5022550;28;20198;-87
2021/07/03 00:50:36;;;;;;;10.25;9.38;;;19.10;74.30;;;;;;5023462;28;20233;-87
2021/07/03 00:53:02;;;;;;;10.80;9.77;;;19.20;73.90;;;;;;5023087;28;20180;-88
2021/07/03 00:55:28;;;;;;;10.68;9.70;;;19.20;73.90;;;;;;4989248;28;20181;-89
2021/07/03 00:57:54;;;;;;;10.63;9.70;;;19.20;73.80;;;;;;5023084;28;20205;-88
2021/07/03 01:00:21;;;;;;;10.05;9.25;;;19.20;73.40;;;;;;5012826;28;20225;-90
2021/07/03 01:02:47;;;;;;;9.25;8.55;;;19.10;74.50;;;;;;5003561;28;20174;-89
2021/07/03 01:05:13;;;;;;;9.98;8.65;;;19.10;74.60;;;;;;5004098;28;20625;-89
2021/07/03 01:07:39;;;;;;;9.60;8.70;;;19.00;74.30;;;;;;5003116;28;20230;-88
2021/07/03 01:10:06;;;;;;;9.77;8.68;;;18.70;74.30;;;;;;5001305;28;20221;-90
2021/07/03 01:12:32;;;;;;;8.82;8.13;;;18.50;75.30;;;;;;5003185;28;20182;-89
2021/07/03 01:14:57;;;;;;;9.65;8.85;;;18.20;76.90;;;;;;5002856;28;20182;-89
2021/07/03 01:17:23;;;;;;;10.43;9.63;;;18.30;77.00;;;;;;5002738;28;20174;-89
2021/07/03 01:19:50;;;;;;;11.15;10.15;;;18.50;77.10;;;;;;5002822;28;20203;-89
2021/07/03 01:22:16;;;;;;;10.40;9.45;;;18.50;76.70;;;;;;5002666;28;20190;-90
2021/07/03 01:24:42;;;;;;;10.55;9.65;;;18.70;75.60;;;;;;4986979;28;20209;-90
2021/07/03 01:27:12;;;;;;;9.73;8.82;;;18.70;75.10;;;;;;5002711;28;20680;-89
2021/07/03 01:29:38;;;;;;;9.90;8.15;;;18.50;74.80;;;;;;4983793;28;20213;-89
2021/07/03 01:32:04;;;;;;;9.88;8.90;;;18.40;76.20;;;;;;4986661;28;20552;-90
2021/07/03 01:34:31;;;;;;;9.88;9.10;;;18.40;76.10;;;;;;5010776;28;20196;-89
2021/07/03 01:36:58;;;;;;;9.95;9.15;;;18.60;75.80;;;;;;5011599;28;20205;-88
2021/07/03 01:39:24;;;;;;;9.43;8.73;;;18.50;75.80;;;;;;5001121;28;20209;-90
2021/07/03 01:41:51;;;;;;;10.07;9.13;;;18.60;75.70;;;;;;5001506;28;20181;-90
2021/07/03 01:44:27;;;;;;;9.57;8.75;;;18.60;75.00;;;;;;5001301;28;20182;-90
2021/07/03 01:46:54;;;;;;;8.73;8.02;;;18.60;74.80;;;;;;4985139;28;20163;-90
2021/07/03 01:49:20;;;;;;;9.43;8.73;;;18.60;74.90;;;;;;5001381;28;20585;-90
2021/07/03 01:51:47;;;;;;;9.52;8.63;;;18.60;75.00;;;;;;5000932;28;20620;-90
2021/07/03 01:54:13;;;;;;;9.40;8.30;;;18.60;75.20;;;;;;5000952;28;20177;-90
2021/07/03 01:56:41;;;;;;;10.35;9.43;;;18.60;75.00;;;;;;5001432;28;20522;-90
2021/07/03 01:59:07;;;;;;;9.65;8.75;;;18.60;74.70;;;;;;4985265;28;20194;-90
2021/07/03 02:01:33;;;;;;;9.30;8.60;;;18.50;75.00;;;;;;4985900;28;20224;-90
2021/07/03 02:03:59;;;;;;;8.68;8.07;;;18.60;74.80;;;;;;5003333;28;20182;-89
2021/07/03 02:06:25;;;;;;;9.18;8.48;;;18.60;74.60;;;;;;5002395;28;20181;-89
2021/07/03 02:08:50;;;;;;;10.05;9.20;;;18.60;74.40;;;;;;5022479;28;20236;-90
2021/07/03 02:11:16;;;;;;;9.60;8.60;;;18.60;74.40;;;;;;5022782;28;20170;-91
2021/07/03 02:13:42;;;;;;;8.75;8.05;;;18.60;74.30;;;;;;5022627;28;20174;-89
2021/07/03 02:16:08;;;;;;;9.10;8.02;;;18.60;74.40;;;;;;5026972;28;20212;-87
2021/07/03 02:18:34;;;;;;;8.32;7.68;;;18.50;74.60;;;;;;5029693;28;20276;-88
2021/07/03 02:20:59;;;;;;;9.15;8.45;;;18.50;74.50;;;;;;5029406;28;20185;-90
2021/07/03 02:23:25;;;;;;;9.40;8.70;;;18.60;74.70;;;;;;5012645;28;20228;-90
2021/07/03 02:25:51;;;;;;;9.15;8.45;;;18.50;74.90;;;;;;5041798;28;20173;-85
2021/07/03 02:28:16;;;;;;;9.45;8.52;;;18.40;76.70;;;;;;5040145;28;20271;-89
2021/07/03 02:30:42;;;;;;;8.70;7.90;;;18.30;76.20;;;;;;4995927;28;20209;-89
2021/07/03 02:33:10;;;;;;;8.07;7.47;;;18.30;75.70;;;;;;5031672;28;20193;-86
2021/07/03 02:35:36;;;;;;;8.82;8.02;;;18.30;75.50;;;;;;5043424;28;20208;-85
2021/07/03 02:38:02;;;;;;;8.23;7.43;;;18.10;75.90;;;;;;5043178;28;20188;-89
2021/07/03 02:40:28;;;;;;;8.55;7.82;;;18.00;76.50;;;;;;5010821;28;20211;-89
2021/07/03 02:42:54;;;;;;;8.23;7.53;;;18.00;76.80;;;;;;5029111;28;20197;-89
2021/07/03 02:45:19;;;;;;;8.82;7.93;;;18.10;76.30;;;;;;5029426;28;20181;-90
2021/07/03 02:47:45;;;;;;;8.68;7.45;;;18.00;75.60;;;;;;5011911;28;20255;-90
2021/07/03 02:50:14;;;;;;;8.63;7.93;;;18.00;76.30;;;;;;5028722;28;20209;-90
2021/07/03 02:52:41;;;;;;;7.68;7.07;;;18.00;76.10;;;;;;5011755;28;20176;-90
2021/07/03 02:55:07;;;;;;;8.73;7.93;;;18.10;75.90;;;;;;5013616;28;20182;-89
2021/07/03 02:57:33;;;;;;;8.55;7.75;;;18.00;75.70;;;;;;5009849;28;20181;-88
2021/07/03 02:59:59;;;;;;;7.90;7.30;;;17.90;76.40;;;;;;5009421;28;20198;-89
2021/07/03 03:02:25;;;;;;;10.07;7.15;;;17.90;76.20;;;;;;5008962;28;20229;-88
2021/07/03 03:04:51;;;;;;;8.27;7.40;;;18.00;76.30;;;;;;4991584;28;20209;-88
2021/07/03 03:07:17;;;;;;;8.00;7.30;;;18.00;76.10;;;;;;4992020;28;20656;-89
2021/07/03 03:09:42;;;;;;;7.30;6.75;;;18.00;75.90;;;;;;5009167;28;20218;-90
2021/07/03 03:12:08;;;;;;;8.95;8.02;;;17.90;76.30;;;;;;4975819;28;20248;-87
2021/07/03 03:14:34;;;;;;;8.98;8.05;;;17.90;75.90;;;;;;5009342;28;20208;-89
2021/07/03 03:17:00;;;;;;;8.00;7.40;;;18.00;76.20;;;;;;4991703;28;20193;-90
2021/07/03 03:19:25;;;;;;;8.23;7.63;;;18.00;76.20;;;;;;5024297;28;20224;-88
2021/07/03 03:21:51;;;;;;;8.23;7.55;;;18.00;75.80;;;;;;4994854;28;20572;-90
2021/07/03 03:24:17;;;;;;;8.10;7.47;;;17.80;76.50;;;;;;4998806;28;20660;-90
2021/07/03 03:26:43;;;;;;;8.23;7.25;;;17.90;76.50;;;;;;5008567;28;20190;-89
2021/07/03 03:29:09;;;;;;;8.40;7.47;;;17.90;76.10;;;;;;4958010;28;20225;-90
2021/07/03 03:31:35;;;;;;;7.50;6.85;;;17.90;76.20;;;;;;4989579;28;20192;-89
2021/07/03 03:34:00;;;;;;;8.30;7.50;;;17.80;76.80;;;;;;5006576;28;20185;-89
2021/07/03 03:36:26;;;;;;;7.68;7.05;;;17.70;75.90;;;;;;5006948;28;20177;-89
2021/07/03 03:38:52;;;;;;;7.72;7.03;;;17.70;76.60;;;;;;4990205;28;20221;-88
2021/07/03 03:41:20;;;;;;;7.65;7.00;;;17.60;76.30;;;;;;5011558;28;20205;-90
2021/07/03 03:43:46;;;;;;;7.55;6.85;;;17.60;76.70;;;;;;4973374;28;20267;-89
2021/07/03 03:46:12;;;;;;;8.13;7.43;;;17.60;77.00;;;;;;5006729;28;20194;-90
2021/07/03 03:48:37;;;;;;;7.90;7.30;;;17.70;77.30;;;;;;5006403;28;20219;-90
2021/07/03 03:51:03;;;;;;;8.43;7.63;;;17.70;77.70;;;;;;4989227;28;20187;-89
2021/07/03 03:53:29;;;;;;;7.70;7.05;;;17.60;77.90;;;;;;5007108;28;20193;-89
2021/07/03 03:55:54;;;;;;;10.80;7.65;;;17.60;77.50;;;;;;5007093;28;20355;-88
2021/07/03 03:58:20;;;;;;;12.15;7.90;;;17.60;76.20;;;;;;5006703;28;20194;-89
2021/07/03 04:00:46;;;;;;;7.53;6.93;;;17.40;77.30;;;;;;5006686;28;20217;-89
2021/07/03 04:03:12;;;;;;;8.90;8.00;;;17.40;78.50;;;;;;5006662;28;20195;-89
2021/07/03 04:05:37;;;;;;;7.95;7.25;;;17.40;78.10;;;;;;4986599;28;20207;-90
2021/07/03 04:08:04;;;;;;;7.32;6.82;;;17.50;77.60;;;;;;5004589;28;20204;-89
2021/07/03 04:10:30;;;;;;;8.20;7.40;;;17.50;77.80;;;;;;5001618;28;20325;-90
2021/07/03 04:12:55;;;;;;;7.78;6.95;;;17.60;77.70;;;;;;5001407;28;20261;-90
2021/07/03 04:15:21;;;;;;;8.30;7.30;;;17.60;77.80;;;;;;5001141;28;20177;-87
2021/07/03 04:17:47;;;;;;;8.40;7.60;;;17.60;77.70;;;;;;5018864;28;20205;-90
2021/07/03 04:20:14;;;;;;;9.27;7.72;;;17.60;78.10;;;;;;5018572;28;20578;-89
2021/07/03 04:22:40;;;;;;;8.25;7.45;;;17.70;76.60;;;;;;5009514;28;20189;-89
2021/07/03 04:25:08;;;;;;;7.45;6.80;;;17.40;78.10;;;;;;5000624;28;20187;-89
2021/07/03 04:27:35;;;;;;;8.00;7.30;;;17.40;78.40;;;;;;5000696;28;20583;-90
2021/07/03 04:30:03;;;;;;;8.20;7.47;;;17.50;78.30;;;;;;4982518;28;20494;-89
2021/07/03 04:32:29;;;;;;;8.35;7.55;;;17.50;77.80;;;;;;5000083;28;20280;-89
2021/07/03 04:34:54;;;;;;;8.43;7.65;;;17.50;77.60;;;;;;5000170;28;20213;-90
2021/07/03 04:37:20;;;;;;;7.43;6.82;;;17.50;78.20;;;;;;5001065;28;20191;-90
2021/07/03 04:39:46;;;;;;;7.63;6.90;;;17.60;78.10;;;;;;5000278;28;20197;-89
2021/07/03 04:42:11;;;;;;;8.60;7.85;;;17.70;77.90;;;;;;4983190;28;20202;-89
2021/07/03 04:44:37;;;;;;;8.35;7.55;;;17.50;78.60;;;;;;5000094;28;20648;-90
2021/07/03 04:47:03;;;;;;;7.65;6.95;;;17.40;79.40;;;;;;5000823;28;20262;-89
2021/07/03 04:49:32;;;;;;;7.97;7.20;;;17.40;79.40;;;;;;4982893;28;20228;-89
2021/07/03 04:51:58;;;;;;;8.40;7.60;;;17.50;79.50;;;;;;5008771;28;20659;-88
2021/07/03 04:54:24;;;;;;;8.40;7.60;;;17.60;79.60;;;;;;5015243;28;20207;-89
2021/07/03 04:56:50;;;;;;;8.10;7.40;;;17.60;79.60;;;;;;5019963;28;20185;-88
2021/07/03 04:59:15;;;;;;;9.98;8.32;;;17.70;79.70;;;;;;5018805;28;20216;-89
2021/07/03 05:01:41;;;;;;;9.18;8.27;;;17.70;79.20;;;;;;5000442;28;20194;-89
2021/07/03 05:04:07;;;;;;;8.88;7.97;;;17.70;79.70;;;;;;4986271;28;20224;-88
2021/07/03 05:06:32;;;;;;;8.02;7.25;;;17.70;79.80;;;;;;5001795;28;20649;-88
2021/07/03 05:08:58;;;;;;;8.95;8.05;;;17.70;79.60;;;;;;5018851;28;20220;-89
2021/07/03 05:11:24;;;;;;;8.52;7.70;;;17.80;79.30;;;;;;5019238;28;20177;-88
2021/07/03 05:13:49;;;;;;;8.52;7.72;;;17.80;79.50;;;;;;5003251;28;20676;-90
2021/07/03 05:16:15;;;;;;;11.57;8.38;;;17.80;79.40;;;;;;5031548;28;20192;-87
2021/07/03 05:18:41;;;;;;;9.70;8.75;;;17.90;79.30;;;;;;5018071;28;20228;-89
2021/07/03 05:21:07;;;;;;;9.00;8.10;;;17.90;78.80;;;;;;5024400;28;20213;-87
2021/07/03 05:23:33;;;;;;;9.93;8.90;;;18.00;78.40;;;;;;4991961;28;20189;-89
2021/07/03 05:26:00;;;;;;;8.93;8.15;;;18.10;78.90;;;;;;5017008;28;20173;-86
2021/07/03 05:28:25;;;;;;;11.05;7.75;;;18.20;78.20;;;;;;5017379;28;20232;-87
2021/07/03 05:30:52;;;;;;;9.77;8.95;;;18.30;78.20;;;;;;5021816;28;20252;-90
2021/07/03 05:33:18;;;;;;;14.18;9.05;;;18.40;77.10;;;;;;5019594;28;20185;-89
2021/07/03 05:35:44;;;;;;;9.38;8.48;;;18.30;78.20;;;;;;5018000;28;20169;-89
2021/07/03 05:38:10;;;;;;;10.32;8.75;;;18.30;77.80;;;;;;5022084;28;20204;-90
2021/07/03 05:40:36;;;;;;;9.13;8.32;;;18.40;79.00;;;;;;5005170;28;20212;-89
2021/07/03 05:43:02;;;;;;;9.70;8.90;;;18.30;79.10;;;;;;5006854;28;20309;-88
2021/07/03 05:45:27;;;;;;;10.23;9.10;;;18.40;79.30;;;;;;5009718;28;20180;-86
2021/07/03 05:47:53;;;;;;;9.90;9.15;;;18.50;77.70;;;;;;5026779;28;20232;-89
2021/07/03 05:50:21;;;;;;;9.95;8.50;;;18.50;76.00;;;;;;5011783;28;20234;-89
2021/07/03 05:52:48;;;;;;;9.90;8.90;;;18.60;75.50;;;;;;4971817;28;20280;-89
2021/07/03 05:55:13;;;;;;;10.00;9.10;;;18.60;76.20;;;;;;4999868;28;20204;-90
2021/07/03 05:57:39;;;;;;;10.25;9.25;;;18.70;75.10;;;;;;4999534;28;20185;-90
2021/07/03 06:00:07;;;;;;;11.30;10.35;;;18.80;75.90;;;;;;5006567;28;20251;-90
2021/07/03 06:02:32;;;;;;;12.23;10.23;;;18.90;75.80;;;;;;4995137;28;20196;-89
2021/07/03 06:04:58;;;;;;;10.73;9.82;;;18.80;75.40;;;;;;5009216;28;20190;-90
2021/07/03 06:07:25;;;;;;;11.00;10.02;;;18.70;76.50;;;;;;5006427;28;20178;-90
2021/07/03 06:09:52;;;;;;;11.48;10.48;;;18.70;75.90;;;;;;4991329;28;20213;-88
2021/07/03 06:12:17;;;;;;;10.23;9.32;;;18.70;76.80;;;;;;5007791;28;20192;-90
2021/07/03 06:14:43;;;;;;;11.10;10.05;;;18.70;77.30;;;;;;5010190;28;20271;-89
2021/07/03 06:17:13;;;;;;;10.93;10.00;;;18.80;76.30;;;;;;5007292;28;20188;-89
2021/07/03 06:19:43;;;;;;;11.75;9.93;;;18.80;76.50;;;;;;5007517;28;20212;-90
2021/07/03 06:22:12;;;;;;;10.70;9.80;;;18.90;77.10;;;;;;5012883;28;20197;-89
2021/07/03 06:24:37;;;;;;;11.18;10.15;;;19.00;76.10;;;;;;5011160;28;20196;-90
2021/07/03 06:27:03;;;;;;;10.93;9.95;;;19.10;76.00;;;;;;5010683;28;20564;-90
2021/07/03 06:29:29;;;;;;;11.77;10.68;;;19.10;76.40;;;;;;5012254;28;20217;-89
2021/07/03 06:31:55;;;;;;;10.48;9.57;;;19.20;75.90;;;;;;5006942;28;20175;-87
2021/07/03 06:34:20;;;;;;;10.93;9.82;;;19.30;75.60;;;;;;5009152;28;20217;-90
2021/07/03 06:36:46;;;;;;;10.60;9.65;;;19.40;75.50;;;;;;4999588;28;20213;-90
2021/07/03 06:39:12;;;;;;;11.05;10.00;;;19.40;76.30;;;;;;4983018;28;20211;-89
2021/07/03 06:41:37;;;;;;;11.15;9.45;;;19.50;75.90;;;;;;4998942;28;20183;-89
2021/07/03 06:44:03;;;;;;;11.00;10.00;;;19.60;75.90;;;;;;4999623;28;20216;-89
2021/07/03 06:46:30;;;;;;;10.68;9.68;;;19.70;76.10;;;;;;5000025;28;20178;-88
2021/07/03 06:48:56;;;;;;;10.13;9.18;;;19.60;76.00;;;;;;4996999;28;20213;-88
2021/07/03 06:51:22;;;;;;;9.93;9.02;;;19.70;75.20;;;;;;5018669;28;20240;-89
2021/07/03 06:53:47;;;;;;;10.07;9.20;;;19.70;75.10;;;;;;5007236;28;20662;-88
2021/07/03 06:56:13;;;;;;;11.45;10.45;;;19.80;75.50;;;;;;4997876;28;20185;-88
2021/07/03 06:58:39;;;;;;;10.63;9.73;;;19.80;75.40;;;;;;4994831;28;20328;-88
2021/07/03 07:01:04;;;;;;;9.95;9.15;;;19.90;75.70;;;;;;4985275;28;20206;-89
2021/07/03 07:03:30;;;;;;;9.23;8.43;;;19.90;76.10;;;;;;5002405;28;20194;-88
2021/07/03 07:05:55;;;;;;;10.65;9.60;;;20.00;76.90;;;;;;5001634;28;20217;-88
2021/07/03 07:08:21;;;;;;;10.93;9.90;;;20.20;73.10;;;;;;5008016;28;20200;-89
2021/07/03 07:10:47;;;;;;;10.82;9.38;;;20.30;72.30;;;;;;4991368;28;20211;-89
2021/07/03 07:13:13;;;;;;;10.70;9.70;;;20.30;70.40;;;;;;5008915;28;20187;-89
2021/07/03 07:15:38;;;;;;;10.55;9.70;;;20.30;70.80;;;;;;5010470;28;20185;-89
2021/07/03 07:18:04;;;;;;;10.25;9.35;;;20.30;70.90;;;;;;5006031;28;20197;-89
2021/07/03 07:20:30;;;;;;;9.82;9.02;;;20.40;69.60;;;;;;4990537;28;20217;-89
2021/07/03 07:22:56;;;;;;;10.13;9.23;;;20.50;70.30;;;;;;5008099;28;20208;-88
2021/07/03 07:25:22;;;;;;;10.40;9.50;;;20.50;69.00;;;;;;4999311;28;20184;-89
2021/07/03 07:27:47;;;;;;;10.70;9.70;;;20.70;69.20;;;;;;5009626;28;20212;-89
2021/07/03 07:30:13;;;;;;;10.35;9.40;;;20.70;68.00;;;;;;4995556;28;20203;-89
2021/07/03 07:32:39;;;;;;;9.63;8.57;;;20.90;67.20;;;;;;4981956;28;20214;-90
2021/07/03 07:35:06;;;;;;;9.48;8.57;;;20.90;69.00;;;;;;5019488;28;20184;-88
2021/07/03 07:37:31;;;;;;;10.32;9.45;;;20.90;68.40;;;;;;5004711;28;20185;-89
2021/07/03 07:39:57;;;;;;;10.13;9.25;;;21.00;67.10;;;;;;4999631;28;20301;-90
2021/07/03 07:42:23;;;;;;;9.85;9.00;;;21.10;68.10;;;;;;4987023;28;20185;-88
2021/07/03 07:44:48;;;;;;;10.23;9.27;;;21.10;68.20;;;;;;5018285;28;20185;-88
2021/07/03 07:47:14;;;;;;;11.48;10.40;;;21.10;68.90;;;;;;5017525;28;20584;-89
2021/07/03 07:49:40;;;;;;;9.85;8.98;;;21.20;68.20;;;;;;5018647;28;20221;-90
2021/07/03 07:52:05;;;;;;;10.48;9.50;;;21.30;67.90;;;;;;5000450;28;20552;-89
2021/07/03 07:54:31;;;;;;;10.70;9.52;;;21.30;66.70;;;;;;5018546;28;20178;-89
2021/07/03 07:56:59;;;;;;;9.52;8.73;;;21.40;66.10;;;;;;5018070;28;20181;-89
2021/07/03 07:59:28;;;;;;;9.68;8.95;;;21.50;66.40;;;;;;4985113;28;20232;-89
2021/07/03 08:01:54;;;;;;;10.15;9.35;;;21.50;65.30;;;;;;5019910;28;20182;-88
2021/07/03 08:04:20;;;;;;;10.10;9.20;;;21.70;66.20;;;;;;5030915;28;20165;-88
2021/07/03 08:06:45;;;;;;;10.07;9.13;;;21.70;65.10;;;;;;5031972;28;20199;-89
2021/07/03 08:09:11;;;;;;;11.07;9.93;;;21.70;64.00;;;;;;4999469;28;20773;-88
2021/07/03 08:11:37;;;;;;;10.88;9.90;;;21.80;64.40;;;;;;5017853;28;20185;-90
2021/07/03 08:14:03;;;;;;;10.23;9.32;;;21.80;65.10;;;;;;5036038;28;20688;-87
2021/07/03 08:16:29;;;;;;;10.52;9.60;;;22.00;64.70;;;;;;5032447;28;20185;-90
2021/07/03 08:18:55;;;;;;;10.13;9.13;;;22.00;67.70;;;;;;5018392;28;20201;-89
2021/07/03 08:21:21;;;;;;;11.00;10.15;;;22.20;67.50;;;;;;5017818;28;20178;-90
2021/07/03 08:23:47;;;;;;;11.13;10.13;;;22.30;64.90;;;;;;5006304;28;20182;-89
2021/07/03 08:26:12;;;;;;;11.00;10.00;;;22.50;66.10;;;;;;4981394;28;20269;-89
2021/07/03 08:28:38;;;;;;;11.57;10.50;;;22.60;66.60;;;;;;4998965;28;20202;-87
2021/07/03 08:31:04;;;;;;;10.82;10.05;;;22.70;66.80;;;;;;4998889;28;20189;-87
2021/07/03 08:33:30;;;;;;;11.25;9.85;;;22.80;64.90;;;;;;5003400;28;20189;-88
2021/07/03 08:35:56;;;;;;;10.25;9.45;;;23.00;62.00;;;;;;5019363;28;20187;-88
2021/07/03 08:38:22;;;;;;;10.43;9.63;;;23.00;61.10;;;;;;5019284;28;20185;-87
2021/07/03 08:40:49;;;;;;;9.98;9.20;;;23.00;62.50;;;;;;5018678;28;20199;-87
2021/07/03 08:43:14;;;;;;;11.05;9.95;;;23.20;60.20;;;;;;5019361;28;20182;-91
2021/07/03 08:45:40;;;;;;;10.25;9.25;;;23.30;59.80;;;;;;5018154;28;20189;-87
2021/07/03 08:48:06;;;;;;;10.35;9.55;;;23.50;61.50;;;;;;5018590;28;20216;-87
2021/07/03 08:50:32;;;;;;;10.95;10.05;;;23.50;61.30;;;;;;5005783;28;20220;-87
2021/07/03 08:52:57;;;;;;;11.65;10.73;;;23.70;60.80;;;;;;5022431;28;20177;-87
2021/07/03 08:55:25;;;;;;;10.95;9.85;;;23.70;60.20;;;;;;5021518;28;20177;-87
2021/07/03 08:57:53;;;;;;;10.77;9.77;;;23.80;60.10;;;;;;5026656;28;20186;-86
2021/07/03 09:00:29;;;;;;;10.50;9.57;;;24.00;60.90;;;;;;5015428;28;20213;-86
2021/07/03 09:02:55;;;;;;;10.30;9.13;;;24.20;61.30;;;;;;5015204;28;20222;-84
2021/07/03 09:05:29;;;;;;;13.93;10.70;;;24.30;59.60;;;;;;5011216;28;20162;-87
2021/07/03 09:08:03;;;;;;;12.05;9.90;;;24.50;58.70;;;;;;5026190;28;20216;-86
2021/07/03 09:10:30;;;;;;;10.43;9.43;;;24.70;58.10;;;;;;5002075;28;20210;-88
2021/07/03 09:13:00;;;;;;;10.13;9.23;;;24.60;57.00;;;;;;5007681;28;20201;-87
2021/07/03 09:15:28;;;;;;;11.68;10.10;;;24.80;56.90;;;;;;4992842;28;20209;-87
2021/07/03 09:18:01;;;;;;;10.13;9.23;;;25.00;56.50;;;;;;5006682;28;20254;-87
2021/07/03 09:20:37;;;;;;;11.50;10.30;;;25.10;57.30;;;;;;4999604;28;20286;-87
2021/07/03 09:23:09;;;;;;;8.35;7.65;;;25.30;56.70;;;;;;4984157;28;20170;-87
2021/07/03 09:25:38;;;;;;;9.35;8.55;;;25.40;50.10;;;;;;5000254;28;20182;-87
2021/07/03 09:28:07;;;;;;;9.68;8.88;;;25.40;50.80;;;;;;5000122;28;20210;-88
2021/07/03 09:30:32;;;;;;;9.43;8.63;;;25.50;53.30;;;;;;5011048;28;20194;-88
2021/07/03 09:32:58;;;;;;;9.05;8.30;;;25.70;52.90;;;;;;5016469;28;20178;-87
2021/07/03 09:35:24;;;;;;;9.52;8.82;;;25.80;50.30;;;;;;5016846;28;20186;-86
2021/07/03 09:37:49;;;;;;;9.57;8.63;;;25.90;50.40;;;;;;5017870;28;20236;-88
2021/07/03 09:40:16;;;;;;;8.07;7.38;;;26.00;51.40;;;;;;5014910;28;20255;-87
2021/07/03 09:42:42;;;;;;;7.13;6.57;;;26.10;47.20;;;;;;5000682;28;20189;-86
2021/07/03 09:45:10;;;;;;;8.27;7.65;;;26.20;45.20;;;;;;5017338;28;20257;-87
2021/07/03 09:47:35;;;;;;;8.15;7.35;;;26.30;45.50;;;;;;4980677;28;20190;-86
2021/07/03 09:50:09;;;;;;;8.05;7.45;;;26.30;46.40;;;;;;4997241;28;20206;-86
2021/07/03 09:52:36;;;;;;;7.82;7.13;;;26.50;46.20;;;;;;4996707;28;20198;-85
2021/07/03 09:55:08;;;;;;;8.05;7.45;;;26.80;46.80;;;;;;4977411;28;20213;-84
2021/07/03 09:57:38;;;;;;;8.05;7.38;;;27.00;45.60;;;;;;4994642;28;20639;-85
2021/07/03 10:00:08;;;;;;;8.60;7.88;;;26.80;44.50;;;;;;5000970;28;20198;-86
2021/07/03 10:02:34;;;;;;;8.25;7.65;;;26.70;44.20;;;;;;5003829;28;20190;-87
2021/07/03 10:04:59;;;;;;;8.35;7.63;;;27.00;43.60;;;;;;4993501;28;20248;-86
2021/07/03 10:07:35;;;;;;;8.13;7.55;;;27.40;42.40;;;;;;5014784;28;20189;-87
2021/07/03 10:10:06;;;;;;;7.85;7.25;;;27.60;44.30;;;;;;5009920;28;20313;-85
2021/07/03 10:12:36;;;;;;;8.15;7.35;;;27.90;40.70;;;;;;5009922;28;20566;-88
2021/07/03 10:15:03;;;;;;;7.40;6.78;;;27.90;41.40;;;;;;5012139;28;20730;-86
2021/07/03 10:17:31;;;;;;;6.65;6.05;;;27.10;41.40;;;;;;5003411;28;20223;-85
2021/07/03 10:19:58;;;;;;;6.35;5.93;;;27.20;41.80;;;;;;4995042;28;20225;-86
2021/07/03 10:22:26;;;;;;;8.13;7.43;;;27.60;40.10;;;;;;4995562;28;20189;-86
2021/07/03 10:24:57;;;;;;;8.55;7.60;;;28.00;44.40;;;;;;4977901;28;20324;-86
2021/07/03 10:27:24;;;;;;;8.50;7.80;;;28.00;43.90;;;;;;4995665;28;20162;-87
2021/07/03 10:29:53;;;;;;;8.27;7.63;;;28.40;43.00;;;;;;4997039;28;20240;-83
2021/07/03 10:32:22;;;;;;;7.93;7.43;;;28.70;42.70;;;;;;4998003;28;20585;-87
2021/07/03 10:34:49;;;;;;;7.75;7.07;;;28.70;42.00;;;;;;4999757;28;20189;-87
2021/07/03 10:37:29;;;;;;;7.25;6.70;;;28.50;42.20;;;;;;5017288;28;20197;-90
2021/07/03 10:39:54;;;;;;;7.88;7.18;;;28.50;41.20;;;;;;5000857;28;20229;-87
2021/07/03 10:42:47;;;;;;;7.72;7.13;;;28.50;40.70;;;;;;5003500;28;20190;-87
2021/07/03 10:45:16;;;;;;;7.65;7.10;;;28.40;42.20;;;;;;4999223;28;20205;-87
2021/07/03 10:47:42;;;;;;;7.15;6.60;;;28.60;41.00;;;;;;5018150;28;20182;-87
2021/07/03 10:50:17;;;;;;;8.85;6.88;;;29.00;40.40;;;;;;5034910;28;20208;-84
2021/07/03 10:52:43;;;;;;;7.32;6.80;;;29.40;38.80;;;;;;5030445;28;20185;-87
2021/07/03 10:55:09;;;;;;;8.07;7.47;;;29.40;40.80;;;;;;5021640;28;20196;-86
2021/07/03 10:57:43;;;;;;;7.85;7.25;;;29.60;39.80;;;;;;5007301;28;20234;-85
2021/07/03 11:00:11;;;;;;;7.65;7.15;;;29.90;38.00;;;;;;5023953;28;20202;-82
2021/07/03 11:02:37;;;;;;;9.70;7.35;;;29.80;38.30;;;;;;5027336;28;20556;-87
2021/07/03 11:05:13;;;;;;;7.03;6.43;;;29.90;38.50;;;;;;5020999;28;20248;-87
2021/07/03 11:07:40;;;;;;;8.55;6.75;;;30.00;36.40;;;;;;5020965;28;20181;-87
2021/07/03 11:10:17;;;;;;;8.00;7.32;;;30.20;37.60;;;;;;4983450;28;20284;-87
2021/07/03 11:12:53;;;;;;;6.53;6.13;;;30.40;35.20;;;;;;4985076;28;20254;-87
2021/07/03 11:15:24;;;;;;;5.47;5.18;;;30.40;35.00;;;;;;5000300;28;20644;-87
2021/07/03 11:17:51;;;;;;;6.72;6.13;;;30.60;32.90;;;;;;5001587;28;20198;-87
2021/07/03 11:20:25;;;;;;;6.40;5.93;;;30.70;32.20;;;;;;5017413;28;20208;-85
2021/07/03 11:22:51;;;;;;;20.35;7.80;;;31.10;32.10;;;;;;5023454;28;20180;-85
2021/07/03 11:25:28;;;;;;;10.57;7.40;;;30.90;32.00;;;;;;5005973;28;20270;-86
2021/07/03 11:28:02;;;;;;;11.75;7.65;;;30.80;30.90;;;;;;5016931;28;20291;-87
2021/07/03 11:30:28;;;;;;;5.93;5.53;;;30.70;31.80;;;;;;5016492;28;20196;-87
2021/07/03 11:32:56;;;;;;;6.47;5.88;;;30.90;31.80;;;;;;5017802;28;20613;-86
2021/07/03 11:35:23;;;;;;;6.55;5.93;;;31.20;31.10;;;;;;5018383;28;20205;-86
2021/07/03 11:37:50;;;;;;;5.75;5.35;;;31.60;31.00;;;;;;5018054;28;20284;-86
2021/07/03 11:40:25;;;;;;;5.93;5.50;;;31.70;31.50;;;;;;5004586;28;20209;-85
2021/07/03 11:42:52;;;;;;;5.75;5.35;;;32.00;30.10;;;;;;5018193;28;20224;-86
2021/07/03 11:45:20;;;;;;;6.43;5.85;;;31.90;30.60;;;;;;4993389;28;20202;-86
2021/07/03 11:47:52;;;;;;;6.78;6.20;;;32.00;30.60;;;;;;5007198;28;20202;-87
2021/07/03 11:50:20;;;;;;;6.30;5.90;;;32.30;30.60;;;;;;5014802;28;20347;-87
2021/07/03 11:52:50;;;;;;;6.53;5.93;;;32.20;29.30;;;;;;5023870;28;20189;-87
2021/07/03 11:55:20;;;;;;;6.20;5.80;;;32.20;29.90;;;;;;5001705;28;20194;-87
2021/07/03 11:57:48;;;;;;;6.53;5.97;;;32.20;31.70;;;;;;5003416;28;20550;-87
2021/07/03 12:00:20;;;;;;;6.68;6.18;;;32.00;30.70;;;;;;5012201;28;20213;-87
2021/07/03 12:02:46;;;;;;;6.43;5.40;;;32.20;30.50;;;;;;5023036;28;20265;-86
2021/07/03 12:05:13;;;;;;;6.13;5.72;;;32.40;28.50;;;;;;5022927;28;20170;-86
2021/07/03 12:07:40;;;;;;;5.97;5.57;;;32.80;28.30;;;;;;5003634;28;20170;-88
2021/07/03 12:10:09;;;;;;;6.32;5.93;;;33.10;28.10;;;;;;5020871;28;20211;-86
2021/07/03 12:12:35;;;;;;;5.60;5.20;;;33.50;28.90;;;;;;5021727;28;20174;-87
2021/07/03 12:15:12;;;;;;;6.18;5.72;;;33.10;28.80;;;;;;5003322;28;20270;-86
2021/07/03 12:17:50;;;;;;;5.70;5.30;;;33.10;28.80;;;;;;5003276;28;20169;-86
2021/07/03 12:20:18;;;;;;;6.20;5.70;;;33.30;28.20;;;;;;5021784;28;20197;-86
2021/07/03 12:22:58;;;;;;;5.97;5.43;;;33.70;28.00;;;;;;5022739;28;20170;-86
2021/07/03 12:25:25;;;;;;;5.15;4.75;;;33.70;28.10;;;;;;5003810;28;20184;-86
2021/07/03 12:27:56;;;;;;;4.65;4.35;;;33.70;26.90;;;;;;5021326;28;20177;-86
2021/07/03 12:30:22;;;;;;;4.68;4.38;;;33.70;23.80;;;;;;5016283;28;20681;-87
2021/07/03 12:33:09;;;;;;;4.53;4.22;;;33.70;22.90;;;;;;5002316;28;20175;-86
2021/07/03 12:35:36;;;;;;;5.10;4.80;;;34.00;23.20;;;;;;4997610;28;20186;-87
2021/07/03 12:38:03;;;;;;;4.50;4.20;;;34.00;22.70;;;;;;5020478;28;20173;-87
2021/07/03 12:40:37;;;;;;;5.22;4.70;;;33.60;23.00;;;;;;5014367;28;20612;-85
2021/07/03 12:43:04;;;;;;;5.32;4.78;;;32.80;25.10;;;;;;4983972;28;20650;-85